sensor_id;sensor_type;location;lat;lon;timestamp;P1;durP1;ratioP1;P2;durP2;ratioP2
74124;SDS011;62475;52.192;5.396;2022-08-19T00:00:37;6.93;;;5.20;;
74124;SDS011;62475;52.192;5.396;2022-08-19T00:03:03;6.85;;;4.88;;
74124;SDS011;62475;52.192;5.396;2022-08-19T00:05:29;8.90;;;5.82;;
74124;SDS011;62475;52.192;5.396;2022-08-19T00:07:55;5.93;;;4.80;;
74124;SDS011;62475;52.192;5.396;2022-08-19T00:10:20;8.27;;;5.10;;
74124;SDS011;62475;52.192;5.396;2022-08-19T00:12:46;8.73;;;5.55;;
74124;SDS011;62475;52.192;5.396;2022-08-19T00:15:14;8.73;;;6.07;;
74124;SDS011;62475;52.192;5.396;2022-08-19T00:17:42;8.93;;;6.28;;
74124;SDS011;62475;52.192;5.396;2022-08-19T00:20:09;7.35;;;5.57;;
74124;SDS011;62475;52.192;5.396;2022-08-19T00:22:37;7.88;;;5.72;;
74124;SDS011;62475;52.192;5.396;2022-08-19T00:25:04;8.27;;;5.40;;
74124;SDS011;62475;52.192;5.396;2022-08-19T00:27:30;8.27;;;6.00;;
74124;SDS011;62475;52.192;5.396;2022-08-19T00:29:56;8.25;;;5.68;;
74124;SDS011;62475;52.192;5.396;2022-08-19T00:32:21;6.57;;;4.80;;
74124;SDS011;62475;52.192;5.396;2022-08-19T00:34:47;9.55;;;6.80;;
74124;SDS011;62475;52.192;5.396;2022-08-19T00:37:12;11.43;;;7.20;;
74124;SDS011;62475;52.192;5.396;2022-08-19T00:39:37;6.93;;;5.35;;
74124;SDS011;62475;52.192;5.396;2022-08-19T00:42:03;9.38;;;6.13;;
74124;SDS011;62475;52.192;5.396;2022-08-19T00:44:29;9.90;;;7.07;;
74124;SDS011;62475;52.192;5.396;2022-08-19T00:46:57;8.77;;;6.93;;
74124;SDS011;62475;52.192;5.396;2022-08-19T00:49:25;11.90;;;7.55;;
74124;SDS011;62475;52.192;5.396;2022-08-19T00:52:02;11.23;;;6.53;;
74124;SDS011;62475;52.192;5.396;2022-08-19T00:54:30;10.60;;;6.40;;
74124;SDS011;62475;52.192;5.396;2022-08-19T00:56:56;9.82;;;6.18;;
74124;SDS011;62475;52.192;5.396;2022-08-19T00:59:24;11.18;;;6.88;;
74124;SDS011;62475;52.192;5.396;2022-08-19T01:01:50;13.15;;;7.40;;
74124;SDS011;62475;52.192;5.396;2022-08-19T01:04:16;8.75;;;6.32;;
74124;SDS011;62475;52.192;5.396;2022-08-19T01:06:41;9.02;;;6.22;;
74124;SDS011;62475;52.192;5.396;2022-08-19T01:09:06;11.70;;;7.35;;
74124;SDS011;62475;52.192;5.396;2022-08-19T01:11:33;9.80;;;7.07;;
74124;SDS011;62475;52.192;5.396;2022-08-19T01:14:01;11.80;;;8.07;;
74124;SDS011;62475;52.192;5.396;2022-08-19T01:16:27;11.23;;;7.65;;
74124;SDS011;62475;52.192;5.396;2022-08-19T01:18:54;12.98;;;7.50;;
74124;SDS011;62475;52.192;5.396;2022-08-19T01:24:04;15.00;;;8.35;;
74124;SDS011;62475;52.192;5.396;2022-08-19T01:26:30;11.95;;;7.88;;
74124;SDS011;62475;52.192;5.396;2022-08-19T01:28:56;13.15;;;8.45;;
74124;SDS011;62475;52.192;5.396;2022-08-19T01:31:24;11.98;;;8.35;;
74124;SDS011;62475;52.192;5.396;2022-08-19T01:33:55;17.17;;;10.02;;
74124;SDS011;62475;52.192;5.396;2022-08-19T01:36:23;12.60;;;8.75;;
74124;SDS011;62475;52.192;5.396;2022-08-19T01:38:51;15.27;;;9.45;;
74124;SDS011;62475;52.192;5.396;2022-08-19T01:41:17;14.57;;;8.65;;
74124;SDS011;62475;52.192;5.396;2022-08-19T01:43:43;13.80;;;8.95;;
74124;SDS011;62475;52.192;5.396;2022-08-19T01:46:09;15.55;;;9.70;;
74124;SDS011;62475;52.192;5.396;2022-08-19T01:48:37;10.98;;;7.93;;
74124;SDS011;62475;52.192;5.396;2022-08-19T01:51:04;14.38;;;9.75;;
74124;SDS011;62475;52.192;5.396;2022-08-19T01:53:30;17.63;;;10.35;;
74124;SDS011;62475;52.192;5.396;2022-08-19T01:55:56;18.05;;;10.95;;
74124;SDS011;62475;52.192;5.396;2022-08-19T01:58:23;12.95;;;8.82;;
74124;SDS011;62475;52.192;5.396;2022-08-19T02:00:55;12.43;;;8.85;;
74124;SDS011;62475;52.192;5.396;2022-08-19T02:03:20;13.63;;;9.27;;
74124;SDS011;62475;52.192;5.396;2022-08-19T02:05:45;13.55;;;8.63;;
74124;SDS011;62475;52.192;5.396;2022-08-19T02:08:11;17.60;;;10.87;;
74124;SDS011;62475;52.192;5.396;2022-08-19T02:10:40;14.93;;;10.00;;
74124;SDS011;62475;52.192;5.396;2022-08-19T02:13:08;13.10;;;8.57;;
74124;SDS011;62475;52.192;5.396;2022-08-19T02:15:34;19.27;;;11.15;;
74124;SDS011;62475;52.192;5.396;2022-08-19T02:17:59;13.10;;;9.10;;
74124;SDS011;62475;52.192;5.396;2022-08-19T02:20:24;13.77;;;9.43;;
74124;SDS011;62475;52.192;5.396;2022-08-19T02:22:49;12.65;;;8.93;;
74124;SDS011;62475;52.192;5.396;2022-08-19T02:25:15;15.68;;;9.77;;
74124;SDS011;62475;52.192;5.396;2022-08-19T02:27:41;18.10;;;10.48;;
74124;SDS011;62475;52.192;5.396;2022-08-19T02:30:08;13.60;;;9.32;;
74124;SDS011;62475;52.192;5.396;2022-08-19T02:32:36;13.98;;;8.88;;
74124;SDS011;62475;52.192;5.396;2022-08-19T02:35:02;16.13;;;10.65;;
74124;SDS011;62475;52.192;5.396;2022-08-19T02:37:28;16.77;;;11.00;;
74124;SDS011;62475;52.192;5.396;2022-08-19T02:40:12;18.48;;;11.60;;
74124;SDS011;62475;52.192;5.396;2022-08-19T02:42:37;14.45;;;10.55;;
74124;SDS011;62475;52.192;5.396;2022-08-19T02:45:02;13.97;;;10.03;;
74124;SDS011;62475;52.192;5.396;2022-08-19T02:47:30;16.67;;;9.98;;
74124;SDS011;62475;52.192;5.396;2022-08-19T02:49:55;15.65;;;9.85;;
74124;SDS011;62475;52.192;5.396;2022-08-19T02:52:21;15.27;;;10.10;;
74124;SDS011;62475;52.192;5.396;2022-08-19T02:54:48;17.38;;;10.27;;
74124;SDS011;62475;52.192;5.396;2022-08-19T02:57:13;15.75;;;10.75;;
74124;SDS011;62475;52.192;5.396;2022-08-19T02:59:39;15.83;;;10.73;;
74124;SDS011;62475;52.192;5.396;2022-08-19T03:02:04;16.00;;;10.73;;
74124;SDS011;62475;52.192;5.396;2022-08-19T03:04:30;14.98;;;9.10;;
74124;SDS011;62475;52.192;5.396;2022-08-19T03:06:55;14.63;;;9.13;;
74124;SDS011;62475;52.192;5.396;2022-08-19T03:09:20;14.13;;;8.38;;
74124;SDS011;62475;52.192;5.396;2022-08-19T03:11:46;16.85;;;10.77;;
74124;SDS011;62475;52.192;5.396;2022-08-19T03:14:11;18.13;;;10.77;;
74124;SDS011;62475;52.192;5.396;2022-08-19T03:16:44;19.05;;;12.30;;
74124;SDS011;62475;52.192;5.396;2022-08-19T03:19:11;19.05;;;11.52;;
74124;SDS011;62475;52.192;5.396;2022-08-19T03:21:38;18.55;;;11.55;;
74124;SDS011;62475;52.192;5.396;2022-08-19T03:24:05;22.37;;;13.23;;
74124;SDS011;62475;52.192;5.396;2022-08-19T03:26:32;24.67;;;13.27;;
74124;SDS011;62475;52.192;5.396;2022-08-19T03:29:02;25.75;;;14.27;;
74124;SDS011;62475;52.192;5.396;2022-08-19T03:31:29;28.80;;;14.68;;
74124;SDS011;62475;52.192;5.396;2022-08-19T03:33:56;27.05;;;15.02;;
74124;SDS011;62475;52.192;5.396;2022-08-19T03:36:22;20.85;;;13.52;;
74124;SDS011;62475;52.192;5.396;2022-08-19T03:41:22;19.92;;;11.45;;
74124;SDS011;62475;52.192;5.396;2022-08-19T03:43:49;18.80;;;10.10;;
74124;SDS011;62475;52.192;5.396;2022-08-19T03:46:17;18.35;;;11.60;;
74124;SDS011;62475;52.192;5.396;2022-08-19T03:48:45;25.25;;;14.75;;
74124;SDS011;62475;52.192;5.396;2022-08-19T03:51:18;24.35;;;14.15;;
74124;SDS011;62475;52.192;5.396;2022-08-19T03:53:47;22.80;;;13.48;;
74124;SDS011;62475;52.192;5.396;2022-08-19T03:56:13;18.73;;;12.10;;
74124;SDS011;62475;52.192;5.396;2022-08-19T03:58:39;20.75;;;12.13;;
74124;SDS011;62475;52.192;5.396;2022-08-19T04:01:09;19.83;;;12.27;;
74124;SDS011;62475;52.192;5.396;2022-08-19T04:03:38;16.23;;;11.05;;
74124;SDS011;62475;52.192;5.396;2022-08-19T04:06:11;21.48;;;11.90;;
74124;SDS011;62475;52.192;5.396;2022-08-19T04:09:08;21.80;;;12.43;;
74124;SDS011;62475;52.192;5.396;2022-08-19T04:11:36;22.05;;;12.73;;
74124;SDS011;62475;52.192;5.396;2022-08-19T04:14:06;21.98;;;13.13;;
74124;SDS011;62475;52.192;5.396;2022-08-19T04:16:33;23.95;;;12.10;;
74124;SDS011;62475;52.192;5.396;2022-08-19T04:19:02;19.85;;;11.23;;
74124;SDS011;62475;52.192;5.396;2022-08-19T04:21:30;19.92;;;12.05;;
74124;SDS011;62475;52.192;5.396;2022-08-19T04:23:56;17.33;;;10.63;;
74124;SDS011;62475;52.192;5.396;2022-08-19T04:26:30;18.77;;;10.50;;
74124;SDS011;62475;52.192;5.396;2022-08-19T04:28:57;20.63;;;11.00;;
74124;SDS011;62475;52.192;5.396;2022-08-19T04:31:27;21.20;;;12.00;;
74124;SDS011;62475;52.192;5.396;2022-08-19T04:33:58;26.08;;;12.70;;
74124;SDS011;62475;52.192;5.396;2022-08-19T04:36:26;20.52;;;11.40;;
74124;SDS011;62475;52.192;5.396;2022-08-19T04:38:54;20.63;;;12.80;;
74124;SDS011;62475;52.192;5.396;2022-08-19T04:41:21;19.92;;;11.43;;
74124;SDS011;62475;52.192;5.396;2022-08-19T04:44:06;16.52;;;10.18;;
74124;SDS011;62475;52.192;5.396;2022-08-19T04:46:32;18.58;;;10.77;;
74124;SDS011;62475;52.192;5.396;2022-08-19T04:48:58;17.33;;;10.10;;
74124;SDS011;62475;52.192;5.396;2022-08-19T04:51:24;17.55;;;10.05;;
74124;SDS011;62475;52.192;5.396;2022-08-19T04:53:50;18.95;;;11.52;;
74124;SDS011;62475;52.192;5.396;2022-08-19T04:56:17;21.50;;;11.35;;
74124;SDS011;62475;52.192;5.396;2022-08-19T04:58:46;19.92;;;11.05;;
74124;SDS011;62475;52.192;5.396;2022-08-19T05:01:20;25.20;;;11.18;;
74124;SDS011;62475;52.192;5.396;2022-08-19T05:03:49;19.88;;;11.43;;
74124;SDS011;62475;52.192;5.396;2022-08-19T05:06:15;20.30;;;10.48;;
74124;SDS011;62475;52.192;5.396;2022-08-19T05:08:43;21.63;;;11.15;;
74124;SDS011;62475;52.192;5.396;2022-08-19T05:11:11;22.10;;;10.80;;
74124;SDS011;62475;52.192;5.396;2022-08-19T05:13:38;26.40;;;11.98;;
74124;SDS011;62475;52.192;5.396;2022-08-19T05:16:04;25.20;;;11.10;;
74124;SDS011;62475;52.192;5.396;2022-08-19T05:18:30;26.17;;;11.88;;
74124;SDS011;62475;52.192;5.396;2022-08-19T05:21:15;20.83;;;10.63;;
74124;SDS011;62475;52.192;5.396;2022-08-19T05:24:01;18.10;;;9.07;;
74124;SDS011;62475;52.192;5.396;2022-08-19T05:26:27;21.08;;;10.93;;
74124;SDS011;62475;52.192;5.396;2022-08-19T05:28:52;23.95;;;12.40;;
74124;SDS011;62475;52.192;5.396;2022-08-19T05:31:18;26.38;;;12.68;;
74124;SDS011;62475;52.192;5.396;2022-08-19T05:33:44;22.00;;;11.88;;
74124;SDS011;62475;52.192;5.396;2022-08-19T05:36:09;23.20;;;12.50;;
74124;SDS011;62475;52.192;5.396;2022-08-19T05:38:35;26.58;;;12.85;;
74124;SDS011;62475;52.192;5.396;2022-08-19T05:41:10;29.50;;;13.68;;
74124;SDS011;62475;52.192;5.396;2022-08-19T05:43:38;26.65;;;13.63;;
74124;SDS011;62475;52.192;5.396;2022-08-19T05:46:04;39.47;;;16.67;;
74124;SDS011;62475;52.192;5.396;2022-08-19T05:48:31;32.80;;;16.40;;
74124;SDS011;62475;52.192;5.396;2022-08-19T05:50:57;39.78;;;18.30;;
74124;SDS011;62475;52.192;5.396;2022-08-19T05:53:24;38.50;;;19.00;;
74124;SDS011;62475;52.192;5.396;2022-08-19T05:55:49;45.33;;;20.10;;
74124;SDS011;62475;52.192;5.396;2022-08-19T05:58:14;40.70;;;18.33;;
74124;SDS011;62475;52.192;5.396;2022-08-19T06:00:42;43.03;;;19.73;;
74124;SDS011;62475;52.192;5.396;2022-08-19T06:03:08;43.20;;;19.70;;
74124;SDS011;62475;52.192;5.396;2022-08-19T06:05:35;43.33;;;21.13;;
74124;SDS011;62475;52.192;5.396;2022-08-19T06:08:00;48.05;;;22.20;;
74124;SDS011;62475;52.192;5.396;2022-08-19T06:10:25;52.50;;;21.77;;
74124;SDS011;62475;52.192;5.396;2022-08-19T06:12:51;56.72;;;24.38;;
74124;SDS011;62475;52.192;5.396;2022-08-19T06:15:17;57.67;;;23.77;;
74124;SDS011;62475;52.192;5.396;2022-08-19T06:17:42;57.65;;;25.45;;
74124;SDS011;62475;52.192;5.396;2022-08-19T06:20:10;59.88;;;25.55;;
74124;SDS011;62475;52.192;5.396;2022-08-19T06:22:42;61.42;;;24.48;;
74124;SDS011;62475;52.192;5.396;2022-08-19T06:25:09;54.58;;;25.10;;
74124;SDS011;62475;52.192;5.396;2022-08-19T06:27:35;48.72;;;22.88;;
74124;SDS011;62475;52.192;5.396;2022-08-19T06:30:02;54.25;;;23.92;;
74124;SDS011;62475;52.192;5.396;2022-08-19T06:32:28;57.85;;;24.75;;
74124;SDS011;62475;52.192;5.396;2022-08-19T06:34:53;51.55;;;23.90;;
74124;SDS011;62475;52.192;5.396;2022-08-19T06:37:19;52.42;;;24.60;;
74124;SDS011;62475;52.192;5.396;2022-08-19T06:39:46;53.15;;;23.60;;
74124;SDS011;62475;52.192;5.396;2022-08-19T06:42:12;54.97;;;23.42;;
74124;SDS011;62475;52.192;5.396;2022-08-19T06:44:41;51.33;;;24.13;;
74124;SDS011;62475;52.192;5.396;2022-08-19T06:47:08;50.50;;;23.55;;
74124;SDS011;62475;52.192;5.396;2022-08-19T06:49:35;58.53;;;25.77;;
74124;SDS011;62475;52.192;5.396;2022-08-19T06:52:01;57.40;;;23.88;;
74124;SDS011;62475;52.192;5.396;2022-08-19T06:54:27;58.28;;;24.63;;
74124;SDS011;62475;52.192;5.396;2022-08-19T06:56:55;57.17;;;24.45;;
74124;SDS011;62475;52.192;5.396;2022-08-19T06:59:23;61.30;;;26.50;;
74124;SDS011;62475;52.192;5.396;2022-08-19T07:01:53;65.97;;;26.38;;
74124;SDS011;62475;52.192;5.396;2022-08-19T07:04:22;63.92;;;24.95;;
74124;SDS011;62475;52.192;5.396;2022-08-19T07:06:59;67.38;;;25.83;;
74124;SDS011;62475;52.192;5.396;2022-08-19T07:09:27;70.07;;;27.77;;
74124;SDS011;62475;52.192;5.396;2022-08-19T07:11:53;75.07;;;28.27;;
74124;SDS011;62475;52.192;5.396;2022-08-19T07:14:21;69.32;;;27.73;;
74124;SDS011;62475;52.192;5.396;2022-08-19T07:16:49;67.55;;;27.58;;
74124;SDS011;62475;52.192;5.396;2022-08-19T07:19:16;62.75;;;29.20;;
74124;SDS011;62475;52.192;5.396;2022-08-19T07:21:43;68.80;;;29.63;;
74124;SDS011;62475;52.192;5.396;2022-08-19T07:24:08;79.73;;;31.47;;
74124;SDS011;62475;52.192;5.396;2022-08-19T07:26:37;68.63;;;27.80;;
74124;SDS011;62475;52.192;5.396;2022-08-19T07:29:04;68.95;;;29.27;;
74124;SDS011;62475;52.192;5.396;2022-08-19T07:31:30;68.97;;;29.83;;
74124;SDS011;62475;52.192;5.396;2022-08-19T07:33:56;70.05;;;28.98;;
74124;SDS011;62475;52.192;5.396;2022-08-19T07:36:23;69.68;;;27.60;;
74124;SDS011;62475;52.192;5.396;2022-08-19T07:38:55;66.80;;;27.08;;
74124;SDS011;62475;52.192;5.396;2022-08-19T07:41:21;67.22;;;29.55;;
74124;SDS011;62475;52.192;5.396;2022-08-19T07:43:49;61.75;;;27.13;;
74124;SDS011;62475;52.192;5.396;2022-08-19T07:46:14;60.25;;;26.38;;
74124;SDS011;62475;52.192;5.396;2022-08-19T07:48:42;69.38;;;27.98;;
74124;SDS011;62475;52.192;5.396;2022-08-19T07:51:15;66.40;;;28.20;;
74124;SDS011;62475;52.192;5.396;2022-08-19T07:53:43;69.25;;;30.05;;
74124;SDS011;62475;52.192;5.396;2022-08-19T07:56:10;61.22;;;28.40;;
74124;SDS011;62475;52.192;5.396;2022-08-19T07:58:38;63.58;;;26.92;;
74124;SDS011;62475;52.192;5.396;2022-08-19T08:01:06;61.67;;;27.90;;
74124;SDS011;62475;52.192;5.396;2022-08-19T08:03:35;72.20;;;30.67;;
74124;SDS011;62475;52.192;5.396;2022-08-19T08:06:19;66.30;;;29.15;;
74124;SDS011;62475;52.192;5.396;2022-08-19T08:09:04;60.50;;;27.35;;
74124;SDS011;62475;52.192;5.396;2022-08-19T08:11:49;64.47;;;26.80;;
74124;SDS011;62475;52.192;5.396;2022-08-19T08:14:23;67.68;;;26.60;;
74124;SDS011;62475;52.192;5.396;2022-08-19T08:16:51;60.53;;;27.25;;
74124;SDS011;62475;52.192;5.396;2022-08-19T08:19:21;64.60;;;26.48;;
74124;SDS011;62475;52.192;5.396;2022-08-19T08:21:49;59.17;;;25.15;;
74124;SDS011;62475;52.192;5.396;2022-08-19T08:24:14;56.28;;;23.75;;
74124;SDS011;62475;52.192;5.396;2022-08-19T08:26:41;52.80;;;24.30;;
74124;SDS011;62475;52.192;5.396;2022-08-19T08:29:08;52.13;;;23.20;;
74124;SDS011;62475;52.192;5.396;2022-08-19T08:31:35;52.80;;;23.38;;
74124;SDS011;62475;52.192;5.396;2022-08-19T08:34:00;52.53;;;23.20;;
74124;SDS011;62475;52.192;5.396;2022-08-19T08:36:26;49.08;;;22.73;;
74124;SDS011;62475;52.192;5.396;2022-08-19T08:38:52;51.08;;;23.70;;
74124;SDS011;62475;52.192;5.396;2022-08-19T08:41:21;45.00;;;21.98;;
74124;SDS011;62475;52.192;5.396;2022-08-19T08:43:59;43.53;;;20.42;;
74124;SDS011;62475;52.192;5.396;2022-08-19T08:46:42;42.35;;;20.48;;
74124;SDS011;62475;52.192;5.396;2022-08-19T08:52:07;49.10;;;22.65;;
74124;SDS011;62475;52.192;5.396;2022-08-19T08:54:40;42.13;;;20.63;;
74124;SDS011;62475;52.192;5.396;2022-08-19T08:57:12;42.67;;;20.88;;
74124;SDS011;62475;52.192;5.396;2022-08-19T08:59:43;39.67;;;20.67;;
74124;SDS011;62475;52.192;5.396;2022-08-19T09:02:13;39.97;;;19.92;;
74124;SDS011;62475;52.192;5.396;2022-08-19T09:04:39;42.65;;;19.80;;
74124;SDS011;62475;52.192;5.396;2022-08-19T09:07:13;39.17;;;20.57;;
74124;SDS011;62475;52.192;5.396;2022-08-19T09:09:42;37.40;;;19.38;;
74124;SDS011;62475;52.192;5.396;2022-08-19T09:12:25;41.72;;;21.30;;
74124;SDS011;62475;52.192;5.396;2022-08-19T09:15:05;39.65;;;20.58;;
74124;SDS011;62475;52.192;5.396;2022-08-19T09:17:33;35.08;;;20.05;;
74124;SDS011;62475;52.192;5.396;2022-08-19T09:20:02;36.67;;;18.38;;
74124;SDS011;62475;52.192;5.396;2022-08-19T09:22:33;36.55;;;18.80;;
74124;SDS011;62475;52.192;5.396;2022-08-19T09:24:59;34.08;;;18.63;;
74124;SDS011;62475;52.192;5.396;2022-08-19T09:27:25;30.33;;;17.08;;
74124;SDS011;62475;52.192;5.396;2022-08-19T09:29:52;33.70;;;18.38;;
74124;SDS011;62475;52.192;5.396;2022-08-19T09:32:18;37.97;;;18.85;;
74124;SDS011;62475;52.192;5.396;2022-08-19T09:34:44;32.60;;;19.30;;
74124;SDS011;62475;52.192;5.396;2022-08-19T09:37:10;33.78;;;19.13;;
74124;SDS011;62475;52.192;5.396;2022-08-19T09:39:36;30.40;;;17.95;;
74124;SDS011;62475;52.192;5.396;2022-08-19T09:42:02;33.42;;;18.75;;
74124;SDS011;62475;52.192;5.396;2022-08-19T09:44:28;37.80;;;19.90;;
74124;SDS011;62475;52.192;5.396;2022-08-19T09:46:54;37.33;;;21.02;;
74124;SDS011;62475;52.192;5.396;2022-08-19T09:49:19;37.80;;;22.08;;
74124;SDS011;62475;52.192;5.396;2022-08-19T09:51:49;36.17;;;19.55;;
74124;SDS011;62475;52.192;5.396;2022-08-19T09:54:15;33.08;;;19.48;;
74124;SDS011;62475;52.192;5.396;2022-08-19T09:56:41;34.90;;;20.15;;
74124;SDS011;62475;52.192;5.396;2022-08-19T09:59:06;35.83;;;18.90;;
74124;SDS011;62475;52.192;5.396;2022-08-19T10:01:33;32.72;;;19.23;;
74124;SDS011;62475;52.192;5.396;2022-08-19T10:03:59;30.17;;;18.02;;
74124;SDS011;62475;52.192;5.396;2022-08-19T10:06:26;29.98;;;17.50;;
74124;SDS011;62475;52.192;5.396;2022-08-19T10:08:58;28.08;;;18.05;;
74124;SDS011;62475;52.192;5.396;2022-08-19T10:11:24;28.45;;;16.83;;
74124;SDS011;62475;52.192;5.396;2022-08-19T10:13:51;29.80;;;17.67;;
74124;SDS011;62475;52.192;5.396;2022-08-19T10:16:17;25.85;;;16.13;;
74124;SDS011;62475;52.192;5.396;2022-08-19T10:18:47;27.50;;;17.15;;
74124;SDS011;62475;52.192;5.396;2022-08-19T10:21:14;22.90;;;15.50;;
74124;SDS011;62475;52.192;5.396;2022-08-19T10:23:46;25.15;;;15.00;;
74124;SDS011;62475;52.192;5.396;2022-08-19T10:26:14;26.92;;;16.45;;
74124;SDS011;62475;52.192;5.396;2022-08-19T10:28:44;28.15;;;15.75;;
74124;SDS011;62475;52.192;5.396;2022-08-19T10:31:11;24.02;;;14.15;;
74124;SDS011;62475;52.192;5.396;2022-08-19T10:33:39;21.73;;;12.35;;
74124;SDS011;62475;52.192;5.396;2022-08-19T10:36:07;23.05;;;14.63;;
74124;SDS011;62475;52.192;5.396;2022-08-19T10:38:36;23.85;;;15.40;;
74124;SDS011;62475;52.192;5.396;2022-08-19T10:41:12;25.65;;;14.77;;
74124;SDS011;62475;52.192;5.396;2022-08-19T10:43:47;22.52;;;14.27;;
74124;SDS011;62475;52.192;5.396;2022-08-19T10:48:41;22.65;;;15.13;;
74124;SDS011;62475;52.192;5.396;2022-08-19T10:51:08;22.25;;;16.25;;
74124;SDS011;62475;52.192;5.396;2022-08-19T10:53:52;22.45;;;14.88;;
74124;SDS011;62475;52.192;5.396;2022-08-19T10:56:18;22.50;;;15.30;;
74124;SDS011;62475;52.192;5.396;2022-08-19T10:59:02;24.65;;;14.65;;
74124;SDS011;62475;52.192;5.396;2022-08-19T11:01:28;24.58;;;17.27;;
74124;SDS011;62475;52.192;5.396;2022-08-19T11:03:55;22.75;;;15.57;;
74124;SDS011;62475;52.192;5.396;2022-08-19T11:06:22;24.90;;;16.52;;
74124;SDS011;62475;52.192;5.396;2022-08-19T11:08:49;25.23;;;16.20;;
74124;SDS011;62475;52.192;5.396;2022-08-19T11:11:15;22.63;;;17.25;;
74124;SDS011;62475;52.192;5.396;2022-08-19T11:13:40;23.05;;;16.27;;
74124;SDS011;62475;52.192;5.396;2022-08-19T11:16:07;21.35;;;15.18;;
74124;SDS011;62475;52.192;5.396;2022-08-19T11:18:45;22.38;;;15.27;;
74124;SDS011;62475;52.192;5.396;2022-08-19T11:21:13;21.58;;;13.85;;
74124;SDS011;62475;52.192;5.396;2022-08-19T11:23:44;21.13;;;14.48;;
74124;SDS011;62475;52.192;5.396;2022-08-19T11:26:11;21.40;;;15.27;;
74124;SDS011;62475;52.192;5.396;2022-08-19T11:28:37;21.88;;;13.85;;
74124;SDS011;62475;52.192;5.396;2022-08-19T11:31:03;24.17;;;15.93;;
74124;SDS011;62475;52.192;5.396;2022-08-19T11:33:30;24.05;;;15.43;;
74124;SDS011;62475;52.192;5.396;2022-08-19T11:35:57;26.38;;;15.95;;
74124;SDS011;62475;52.192;5.396;2022-08-19T11:38:24;20.83;;;15.32;;
74124;SDS011;62475;52.192;5.396;2022-08-19T11:40:59;20.00;;;13.95;;
74124;SDS011;62475;52.192;5.396;2022-08-19T11:43:26;26.77;;;16.27;;
74124;SDS011;62475;52.192;5.396;2022-08-19T11:45:53;23.23;;;15.73;;
74124;SDS011;62475;52.192;5.396;2022-08-19T11:48:20;21.67;;;14.70;;
74124;SDS011;62475;52.192;5.396;2022-08-19T11:50:48;20.10;;;14.60;;
74124;SDS011;62475;52.192;5.396;2022-08-19T11:53:14;25.05;;;15.45;;
74124;SDS011;62475;52.192;5.396;2022-08-19T11:55:40;27.20;;;15.52;;
74124;SDS011;62475;52.192;5.396;2022-08-19T11:58:07;22.25;;;14.55;;
74124;SDS011;62475;52.192;5.396;2022-08-19T12:00:33;25.27;;;16.38;;
74124;SDS011;62475;52.192;5.396;2022-08-19T12:03:01;25.02;;;15.27;;
74124;SDS011;62475;52.192;5.396;2022-08-19T12:05:26;28.95;;;16.85;;
74124;SDS011;62475;52.192;5.396;2022-08-19T12:07:52;24.20;;;16.17;;
74124;SDS011;62475;52.192;5.396;2022-08-19T12:10:19;26.08;;;15.63;;
74124;SDS011;62475;52.192;5.396;2022-08-19T12:12:44;22.58;;;15.30;;
74124;SDS011;62475;52.192;5.396;2022-08-19T12:15:10;27.92;;;16.85;;
74124;SDS011;62475;52.192;5.396;2022-08-19T12:17:37;25.50;;;16.67;;
74124;SDS011;62475;52.192;5.396;2022-08-19T12:20:02;31.55;;;17.83;;
74124;SDS011;62475;52.192;5.396;2022-08-19T12:22:29;25.98;;;16.33;;
74124;SDS011;62475;52.192;5.396;2022-08-19T12:24:54;36.40;;;21.35;;
74124;SDS011;62475;52.192;5.396;2022-08-19T12:27:20;38.40;;;23.85;;
74124;SDS011;62475;52.192;5.396;2022-08-19T12:29:45;61.00;;;30.00;;
74124;SDS011;62475;52.192;5.396;2022-08-19T12:32:11;78.95;;;34.35;;
74124;SDS011;62475;52.192;5.396;2022-08-19T12:34:36;77.45;;;33.95;;
74124;SDS011;62475;52.192;5.396;2022-08-19T12:37:03;84.85;;;36.88;;
74124;SDS011;62475;52.192;5.396;2022-08-19T12:39:34;80.93;;;37.08;;
74124;SDS011;62475;52.192;5.396;2022-08-19T12:42:04;74.15;;;33.70;;
74124;SDS011;62475;52.192;5.396;2022-08-19T12:44:30;52.92;;;27.10;;
74124;SDS011;62475;52.192;5.396;2022-08-19T12:46:56;53.45;;;27.08;;
74124;SDS011;62475;52.192;5.396;2022-08-19T12:49:22;48.60;;;24.85;;
74124;SDS011;62475;52.192;5.396;2022-08-19T12:51:47;52.00;;;25.27;;
74124;SDS011;62475;52.192;5.396;2022-08-19T12:54:13;47.70;;;24.13;;
74124;SDS011;62475;52.192;5.396;2022-08-19T12:56:39;43.10;;;22.88;;
74124;SDS011;62475;52.192;5.396;2022-08-19T12:59:05;38.70;;;21.60;;
74124;SDS011;62475;52.192;5.396;2022-08-19T13:01:33;34.95;;;20.25;;
74124;SDS011;62475;52.192;5.396;2022-08-19T13:03:58;37.33;;;22.67;;
74124;SDS011;62475;52.192;5.396;2022-08-19T13:06:24;27.17;;;15.95;;
74124;SDS011;62475;52.192;5.396;2022-08-19T13:08:51;28.15;;;17.52;;
74124;SDS011;62475;52.192;5.396;2022-08-19T13:11:18;27.27;;;18.27;;
74124;SDS011;62475;52.192;5.396;2022-08-19T13:13:45;23.08;;;17.35;;
74124;SDS011;62475;52.192;5.396;2022-08-19T13:18:38;30.40;;;18.98;;
74124;SDS011;62475;52.192;5.396;2022-08-19T13:21:06;27.60;;;19.60;;
74124;SDS011;62475;52.192;5.396;2022-08-19T13:23:33;27.25;;;19.38;;
74124;SDS011;62475;52.192;5.396;2022-08-19T13:26:02;32.00;;;22.17;;
74124;SDS011;62475;52.192;5.396;2022-08-19T13:28:29;41.33;;;23.70;;
74124;SDS011;62475;52.192;5.396;2022-08-19T13:31:18;35.58;;;23.58;;
74124;SDS011;62475;52.192;5.396;2022-08-19T13:34:04;31.05;;;22.13;;
74124;SDS011;62475;52.192;5.396;2022-08-19T13:36:31;38.03;;;21.95;;
74124;SDS011;62475;52.192;5.396;2022-08-19T13:38:57;31.83;;;21.70;;
74124;SDS011;62475;52.192;5.396;2022-08-19T13:41:23;34.10;;;21.75;;
74124;SDS011;62475;52.192;5.396;2022-08-19T13:43:48;34.22;;;23.83;;
74124;SDS011;62475;52.192;5.396;2022-08-19T13:46:14;32.92;;;22.25;;
74124;SDS011;62475;52.192;5.396;2022-08-19T13:48:40;27.48;;;18.95;;
74124;SDS011;62475;52.192;5.396;2022-08-19T13:51:06;35.20;;;21.83;;
74124;SDS011;62475;52.192;5.396;2022-08-19T13:53:34;22.25;;;15.82;;
74124;SDS011;62475;52.192;5.396;2022-08-19T13:56:11;20.67;;;14.50;;
74124;SDS011;62475;52.192;5.396;2022-08-19T13:58:40;17.98;;;12.57;;
74124;SDS011;62475;52.192;5.396;2022-08-19T14:01:06;18.65;;;13.90;;
74124;SDS011;62475;52.192;5.396;2022-08-19T14:03:32;22.35;;;15.32;;
74124;SDS011;62475;52.192;5.396;2022-08-19T14:05:58;16.10;;;12.77;;
74124;SDS011;62475;52.192;5.396;2022-08-19T14:08:24;21.20;;;14.40;;
74124;SDS011;62475;52.192;5.396;2022-08-19T14:10:50;21.13;;;14.35;;
74124;SDS011;62475;52.192;5.396;2022-08-19T14:13:16;26.63;;;16.73;;
74124;SDS011;62475;52.192;5.396;2022-08-19T14:15:45;23.35;;;16.88;;
74124;SDS011;62475;52.192;5.396;2022-08-19T14:18:12;22.95;;;15.32;;
74124;SDS011;62475;52.192;5.396;2022-08-19T14:20:38;24.67;;;16.05;;
74124;SDS011;62475;52.192;5.396;2022-08-19T14:23:03;24.20;;;15.13;;
74124;SDS011;62475;52.192;5.396;2022-08-19T14:25:31;20.60;;;13.50;;
74124;SDS011;62475;52.192;5.396;2022-08-19T14:27:57;16.70;;;11.27;;
74124;SDS011;62475;52.192;5.396;2022-08-19T14:30:33;16.02;;;11.07;;
74124;SDS011;62475;52.192;5.396;2022-08-19T14:33:02;17.83;;;11.43;;
74124;SDS011;62475;52.192;5.396;2022-08-19T14:35:29;14.07;;;11.30;;
74124;SDS011;62475;52.192;5.396;2022-08-19T14:37:55;13.23;;;10.10;;
74124;SDS011;62475;52.192;5.396;2022-08-19T14:40:23;13.68;;;8.98;;